Time;durP1;ratioP1;P1;durP2;ratioP2;P2;SDS_P1;SDS_P2;PMS_P1;PMS_P2;Temp;Humidity;BMP_temperature;BMP_pressure;BME280_temperature;BME280_humidity;BME280_pressure;Samples;Min_cycle;Max_cycle;Signal;HPM_P1;HPM_P2
2022/01/04 00:01:20;;;;;;;1.80;0.57;;;12.90;46.40;;;;;;5098129;28;20294;-48
2022/01/04 00:03:48;;;;;;;1.10;0.40;;;12.90;46.20;;;;;;5097193;28;20247;-48
2022/01/04 00:06:16;;;;;;;2.85;0.52;;;12.90;46.20;;;;;;5098186;28;20459;-48
2022/01/04 00:08:43;;;;;;;3.00;0.90;;;12.90;46.20;;;;;;5097319;28;20217;-48
2022/01/04 00:11:31;;;;;;;1.38;0.50;;;12.90;46.30;;;;;;5097948;28;20274;-48
2022/01/04 00:13:59;;;;;;;1.40;0.40;;;12.80;46.10;;;;;;5097813;28;20208;-49
2022/01/04 00:16:26;;;;;;;1.08;0.43;;;12.80;46.70;;;;;;5097839;28;20612;-48
2022/01/04 00:18:54;;;;;;;1.48;0.98;;;12.80;46.30;;;;;;5097192;28;20164;-48
2022/01/04 00:21:21;;;;;;;1.25;0.43;;;12.80;46.30;;;;;;5097570;28;20604;-48
2022/01/04 00:23:49;;;;;;;1.33;0.65;;;12.70;46.40;;;;;;5096741;28;20168;-49
2022/01/04 00:26:16;;;;;;;1.10;0.40;;;12.80;46.50;;;;;;5097673;28;20224;-48
2022/01/04 00:28:44;;;;;;;1.10;0.30;;;12.70;47.40;;;;;;5098062;28;20176;-48
2022/01/04 00:31:11;;;;;;;3.28;0.50;;;12.70;46.50;;;;;;5097418;28;20198;-48
2022/01/04 00:33:39;;;;;;;1.00;0.30;;;12.70;46.40;;;;;;5097827;28;20539;-48
2022/01/04 00:36:06;;;;;;;1.10;0.40;;;12.60;46.60;;;;;;5097663;28;20221;-48
2022/01/04 00:38:34;;;;;;;1.30;0.50;;;12.60;47.10;;;;;;5080038;28;20597;-48
2022/01/04 00:41:01;;;;;;;1.10;0.40;;;12.60;46.70;;;;;;5097544;28;20213;-48
2022/01/04 00:43:29;;;;;;;1.25;0.50;;;12.60;46.60;;;;;;5097566;28;20199;-48
2022/01/04 00:45:56;;;;;;;1.10;0.40;;;12.60;46.70;;;;;;5096152;28;20305;-48
2022/01/04 00:50:51;;;;;;;1.30;0.50;;;12.60;47.00;;;;;;5097072;28;20533;-48
2022/01/04 00:53:19;;;;;;;1.10;0.50;;;12.50;46.70;;;;;;5097117;28;20175;-48
2022/01/04 00:55:46;;;;;;;1.50;0.55;;;12.50;46.80;;;;;;5079635;28;20184;-49
2022/01/04 00:58:14;;;;;;;1.15;0.40;;;12.50;46.80;;;;;;5096974;28;20234;-48
2022/01/04 01:00:41;;;;;;;1.33;0.52;;;12.50;47.00;;;;;;5097223;28;20167;-48
2022/01/04 01:03:09;;;;;;;2.20;0.70;;;12.50;47.30;;;;;;5096138;28;20645;-48
2022/01/04 01:05:36;;;;;;;1.20;0.40;;;12.50;47.10;;;;;;5097046;28;20250;-48
2022/01/04 01:08:04;;;;;;;1.35;0.65;;;12.40;47.20;;;;;;5096817;28;20167;-48
2022/01/04 01:10:49;;;;;;;1.13;0.40;;;12.40;47.30;;;;;;5079235;28;20191;-48
2022/01/04 01:13:17;;;;;;;1.40;0.40;;;12.40;47.60;;;;;;5095799;28;20597;-48
2022/01/04 01:15:46;;;;;;;3.13;0.90;;;12.40;48.00;;;;;;5079191;28;20175;-48
2022/01/04 01:18:16;;;;;;;1.20;0.50;;;12.40;48.90;;;;;;5095910;28;20480;-48
2022/01/04 01:20:46;;;;;;;1.48;0.50;;;12.40;48.30;;;;;;5097047;28;20195;-49
2022/01/04 01:23:13;;;;;;;1.27;0.40;;;12.40;47.90;;;;;;5095918;28;20627;-48
2022/01/04 01:25:41;;;;;;;1.20;0.63;;;12.50;47.80;;;;;;5096457;28;20180;-48
2022/01/04 01:28:08;;;;;;;1.10;0.30;;;12.50;48.00;;;;;;5095668;28;20236;-48
2022/01/04 01:30:38;;;;;;;1.52;0.52;;;12.50;47.80;;;;;;5096696;28;20184;-48
2022/01/04 01:33:07;;;;;;;1.10;0.35;;;12.60;47.60;;;;;;5095048;28;20174;-48
2022/01/04 01:35:34;;;;;;;1.10;0.40;;;12.60;47.70;;;;;;5095453;28;20172;-48
2022/01/04 01:38:04;;;;;;;1.10;0.35;;;12.70;47.80;;;;;;5095586;28;20532;-48
2022/01/04 01:40:32;;;;;;;1.50;0.70;;;12.80;47.90;;;;;;5095381;28;20199;-48
2022/01/04 01:43:00;;;;;;;1.20;0.50;;;12.80;48.90;;;;;;5079212;28;20624;-48
2022/01/04 01:45:27;;;;;;;1.50;0.50;;;12.80;49.20;;;;;;5095815;28;20618;-49
2022/01/04 01:47:55;;;;;;;1.20;0.50;;;12.80;48.90;;;;;;5078512;28;20179;-48
2022/01/04 01:50:22;;;;;;;1.10;0.30;;;12.80;48.70;;;;;;5096146;28;20188;-49
2022/01/04 01:52:52;;;;;;;2.38;0.60;;;12.90;48.80;;;;;;5095055;28;20164;-48
2022/01/04 01:55:21;;;;;;;1.13;0.50;;;12.90;49.70;;;;;;5095105;28;20156;-48
2022/01/04 01:57:49;;;;;;;1.40;0.57;;;12.90;48.80;;;;;;5095994;28;20171;-48
2022/01/04 02:00:19;;;;;;;2.28;0.93;;;13.00;49.10;;;;;;5095124;28;20165;-48
2022/01/04 02:02:46;;;;;;;6.78;0.82;;;13.00;49.30;;;;;;5094966;28;20178;-48
2022/01/04 02:05:13;;;;;;;1.10;0.40;;;13.00;50.30;;;;;;5096222;28;20572;-48
2022/01/04 02:07:42;;;;;;;1.40;0.63;;;13.00;50.00;;;;;;5096041;28;20180;-49
2022/01/04 02:10:10;;;;;;;1.20;0.73;;;13.00;49.80;;;;;;5094835;28;20187;-48
2022/01/04 02:12:41;;;;;;;1.10;0.30;;;13.00;50.30;;;;;;5095177;28;20168;-49
2022/01/04 02:15:10;;;;;;;2.00;0.88;;;13.00;49.90;;;;;;5095808;28;20278;-48
2022/01/04 02:17:38;;;;;;;1.10;0.30;;;13.10;50.00;;;;;;5078059;28;20171;-48
2022/01/04 02:20:07;;;;;;;1.00;0.20;;;13.10;50.50;;;;;;5096217;28;20485;-48
2022/01/04 02:22:35;;;;;;;1.20;0.40;;;13.00;50.70;;;;;;5095673;28;20497;-48
2022/01/04 02:25:04;;;;;;;1.20;0.40;;;13.00;50.90;;;;;;5095398;28;20175;-48
2022/01/04 02:27:37;;;;;;;1.10;0.45;;;13.00;50.60;;;;;;5095311;28;20186;-49
2022/01/04 02:30:08;;;;;;;1.10;0.30;;;13.00;50.90;;;;;;5095798;28;20552;-49
2022/01/04 02:32:35;;;;;;;1.40;0.40;;;13.00;50.60;;;;;;5094403;28;20171;-48
2022/01/04 02:35:04;;;;;;;1.20;0.43;;;13.00;51.10;;;;;;5095326;28;20585;-49
2022/01/04 02:37:33;;;;;;;1.58;0.40;;;13.00;50.70;;;;;;5078000;28;20175;-48
2022/01/04 02:40:01;;;;;;;1.25;0.40;;;13.00;50.50;;;;;;5095265;28;20505;-48
2022/01/04 02:42:28;;;;;;;1.20;0.45;;;13.00;50.80;;;;;;5094312;28;20164;-49
2022/01/04 02:44:58;;;;;;;1.95;0.50;;;13.00;52.10;;;;;;5093416;28;20227;-48
2022/01/04 02:47:25;;;;;;;1.10;0.38;;;12.90;51.40;;;;;;5094103;28;20631;-48
2022/01/04 02:49:53;;;;;;;1.23;0.60;;;12.90;51.80;;;;;;5095140;28;20164;-48
2022/01/04 02:52:20;;;;;;;3.55;0.70;;;12.80;51.80;;;;;;5095036;28;20216;-49
2022/01/04 02:54:47;;;;;;;1.00;0.30;;;12.80;51.50;;;;;;5094161;28;20240;-48
2022/01/04 02:57:15;;;;;;;1.10;0.50;;;12.90;51.80;;;;;;5094320;28;20608;-49
2022/01/04 02:59:42;;;;;;;1.10;0.30;;;12.80;51.60;;;;;;5095151;28;20213;-48
2022/01/04 03:02:10;;;;;;;1.00;0.30;;;12.90;51.20;;;;;;5095115;28;20497;-48
2022/01/04 03:04:38;;;;;;;1.00;0.20;;;12.90;51.10;;;;;;5095007;28;20589;-49
2022/01/04 03:07:05;;;;;;;1.20;0.38;;;12.90;51.20;;;;;;5094987;28;20183;-49
2022/01/04 03:09:32;;;;;;;1.40;0.57;;;12.90;51.10;;;;;;5095061;28;20160;-48
2022/01/04 03:12:00;;;;;;;1.05;0.30;;;12.90;51.10;;;;;;5094091;28;20207;-48
2022/01/04 03:14:27;;;;;;;1.10;0.60;;;12.90;51.30;;;;;;5094750;28;20294;-48
2022/01/04 03:16:55;;;;;;;1.30;0.40;;;12.90;51.10;;;;;;5094738;28;20183;-48
2022/01/04 03:19:23;;;;;;;1.00;0.30;;;13.00;50.60;;;;;;5095079;28;20156;-48
2022/01/04 03:21:50;;;;;;;1.10;0.30;;;13.00;50.30;;;;;;5093880;28;20163;-48
2022/01/04 03:24:17;;;;;;;1.00;0.25;;;13.10;50.20;;;;;;5094949;28;20606;-49
2022/01/04 03:26:45;;;;;;;1.10;0.40;;;13.10;50.10;;;;;;5094626;28;20493;-48
2022/01/04 03:29:15;;;;;;;1.50;0.70;;;13.10;50.70;;;;;;5093794;28;20168;-48
2022/01/04 03:31:44;;;;;;;1.10;0.30;;;13.10;50.00;;;;;;5077179;28;20196;-48
2022/01/04 03:34:12;;;;;;;1.00;0.30;;;13.20;49.80;;;;;;5094629;28;20605;-48
2022/01/04 03:36:41;;;;;;;3.47;0.60;;;13.20;49.80;;;;;;5093848;28;20168;-48
2022/01/04 03:39:10;;;;;;;1.10;0.40;;;13.20;49.80;;;;;;5077429;28;20493;-49
2022/01/04 03:41:42;;;;;;;1.13;0.35;;;13.20;49.70;;;;;;5093951;28;20172;-48
2022/01/04 03:44:19;;;;;;;1.00;0.20;;;13.20;49.60;;;;;;5094191;28;20164;-48
2022/01/04 03:46:52;;;;;;;1.65;0.50;;;13.20;49.60;;;;;;5077939;28;20180;-48
2022/01/04 03:49:20;;;;;;;1.85;0.52;;;13.20;49.60;;;;;;5094473;28;20207;-48
2022/01/04 03:51:47;;;;;;;1.20;0.73;;;13.20;49.60;;;;;;5076578;28;20191;-49
2022/01/04 03:54:15;;;;;;;1.10;0.55;;;13.10;49.70;;;;;;5093557;28;20160;-48
2022/01/04 03:56:42;;;;;;;1.45;0.63;;;13.10;49.60;;;;;;5096096;28;20156;-48
2022/01/04 03:59:10;;;;;;;1.05;0.40;;;13.10;49.70;;;;;;5098579;28;20585;-48
2022/01/04 04:01:37;;;;;;;1.10;0.40;;;13.10;49.60;;;;;;5097480;28;20168;-48
2022/01/04 04:04:04;;;;;;;1.40;0.70;;;13.10;49.80;;;;;;5098350;28;20597;-48
2022/01/04 04:06:31;;;;;;;1.10;0.40;;;13.10;49.70;;;;;;5097998;28;20168;-49
2022/01/04 04:08:59;;;;;;;1.10;0.40;;;13.10;49.60;;;;;;5098074;28;20233;-48
2022/01/04 04:11:27;;;;;;;1.50;0.77;;;13.10;49.60;;;;;;5098007;28;20191;-48
2022/01/04 04:13:54;;;;;;;1.52;0.50;;;13.10;49.70;;;;;;5080498;28;20221;-48
2022/01/04 04:16:21;;;;;;;1.10;0.45;;;13.10;49.60;;;;;;5097835;28;20164;-48
2022/01/04 04:18:49;;;;;;;1.10;0.40;;;13.10;49.80;;;;;;5097820;28;20622;-48
2022/01/04 04:21:16;;;;;;;1.30;0.30;;;13.00;49.70;;;;;;5097348;28;20164;-48
2022/01/04 04:23:44;;;;;;;2.25;0.60;;;13.00;49.80;;;;;;5080232;28;20168;-48
2022/01/04 04:26:11;;;;;;;1.10;0.38;;;13.00;50.30;;;;;;5096789;28;20497;-48
2022/01/04 04:28:38;;;;;;;1.10;0.40;;;12.90;50.80;;;;;;5097599;28;20175;-48
2022/01/04 04:31:06;;;;;;;1.10;0.30;;;12.90;51.90;;;;;;5097714;28;20226;-48
2022/01/04 04:33:34;;;;;;;1.23;0.60;;;12.80;50.90;;;;;;5096626;28;20164;-48
2022/01/04 04:36:02;;;;;;;1.10;0.40;;;12.80;50.70;;;;;;5096841;28;20164;-48
2022/01/04 04:38:29;;;;;;;1.20;0.50;;;12.80;50.70;;;;;;5096850;28;20160;-49
2022/01/04 04:40:57;;;;;;;1.65;0.43;;;12.80;50.70;;;;;;5096519;28;20178;-49
2022/01/04 04:43:24;;;;;;;1.15;0.47;;;12.80;50.80;;;;;;5097329;28;20605;-48
2022/01/04 04:45:51;;;;;;;1.10;0.50;;;12.80;50.70;;;;;;5097222;28;20219;-48
2022/01/04 04:48:19;;;;;;;1.08;0.20;;;12.80;50.90;;;;;;5096272;28;20225;-49
2022/01/04 04:50:47;;;;;;;1.20;0.60;;;12.80;50.80;;;;;;5097144;28;20188;-48
2022/01/04 04:53:14;;;;;;;1.20;0.60;;;12.80;51.60;;;;;;5096456;28;20247;-48
2022/01/04 04:55:42;;;;;;;1.40;0.60;;;12.80;51.20;;;;;;5096329;28;20243;-48
2022/01/04 04:58:10;;;;;;;1.05;0.28;;;12.80;51.00;;;;;;5097015;28;20167;-49
2022/01/04 05:00:37;;;;;;;1.10;0.47;;;12.80;51.10;;;;;;5096131;28;20160;-49
2022/01/04 05:03:05;;;;;;;1.20;0.60;;;12.80;51.50;;;;;;5097396;28;20248;-48
2022/01/04 05:05:32;;;;;;;1.08;0.35;;;12.80;51.50;;;;;;5079319;28;20212;-48
2022/01/04 05:07:59;;;;;;;1.20;0.50;;;12.70;51.40;;;;;;5096408;28;20163;-48
2022/01/04 05:10:26;;;;;;;1.20;0.68;;;12.80;51.40;;;;;;5096065;28;20195;-49
2022/01/04 05:12:54;;;;;;;1.48;0.50;;;12.80;51.40;;;;;;5095875;28;20172;-48
2022/01/04 05:15:21;;;;;;;1.10;0.50;;;12.80;51.30;;;;;;5095836;28;20210;-48
2022/01/04 05:17:49;;;;;;;1.20;0.50;;;12.80;51.20;;;;;;5096597;28;20161;-48
2022/01/04 05:20:16;;;;;;;1.10;0.30;;;12.80;51.30;;;;;;5095832;28;20164;-48
2022/01/04 05:22:43;;;;;;;1.95;0.95;;;12.80;51.20;;;;;;5095679;28;20182;-48
2022/01/04 05:25:11;;;;;;;1.10;0.30;;;12.80;51.10;;;;;;5096910;28;20608;-48
2022/01/04 05:27:39;;;;;;;1.00;0.25;;;12.80;51.10;;;;;;5096565;28;20168;-48
2022/01/04 05:30:07;;;;;;;1.30;0.70;;;12.80;51.20;;;;;;5096564;28;20266;-48
2022/01/04 05:32:34;;;;;;;1.52;0.70;;;12.80;51.30;;;;;;5095517;28;20564;-48
2022/01/04 05:35:02;;;;;;;1.13;0.45;;;12.80;51.30;;;;;;5096372;28;20152;-49
2022/01/04 05:37:29;;;;;;;1.10;0.30;;;12.80;51.50;;;;;;5095494;28;20167;-48
2022/01/04 05:39:57;;;;;;;1.58;0.73;;;12.70;52.00;;;;;;5095314;28;20187;-49
2022/01/04 05:42:24;;;;;;;1.17;0.52;;;12.70;51.60;;;;;;5095103;28;20229;-49
2022/01/04 05:44:51;;;;;;;1.10;0.30;;;12.70;51.60;;;;;;5095906;28;20666;-48
2022/01/04 05:47:19;;;;;;;1.92;0.73;;;12.70;51.60;;;;;;5095268;28;20171;-48
2022/01/04 05:49:46;;;;;;;1.20;0.50;;;12.70;51.70;;;;;;5096103;28;20160;-48
2022/01/04 05:52:14;;;;;;;1.10;0.40;;;12.70;51.80;;;;;;5095268;28;20171;-49
2022/01/04 05:54:43;;;;;;;1.63;0.52;;;12.70;51.70;;;;;;5096120;28;20233;-48
2022/01/04 05:57:11;;;;;;;1.08;0.30;;;12.70;51.90;;;;;;5095877;28;20264;-48
2022/01/04 05:59:38;;;;;;;1.30;0.52;;;12.60;52.00;;;;;;5078474;28;20167;-49
2022/01/04 06:02:06;;;;;;;1.25;0.65;;;12.60;52.20;;;;;;5095815;28;20175;-48
2022/01/04 06:04:33;;;;;;;1.95;0.68;;;12.60;52.30;;;;;;5095719;28;20160;-48
2022/01/04 06:07:01;;;;;;;1.15;0.43;;;12.60;52.20;;;;;;5094960;28;20251;-48
2022/01/04 06:09:39;;;;;;;2.22;0.63;;;12.60;52.10;;;;;;5094698;28;20505;-48
2022/01/04 06:14:54;;;;;;;1.10;0.38;;;12.60;52.00;;;;;;5095157;28;20236;-48
2022/01/04 06:17:27;;;;;;;1.95;0.95;;;12.60;52.40;;;;;;5095554;28;20156;-48
2022/01/04 06:19:57;;;;;;;1.95;0.70;;;12.60;52.40;;;;;;5094099;28;20164;-48
2022/01/04 06:22:25;;;;;;;3.15;1.25;;;12.60;52.60;;;;;;5094241;28;20194;-48
2022/01/04 06:24:53;;;;;;;2.10;0.60;;;12.50;52.80;;;;;;5094779;28;20313;-48
2022/01/04 06:27:21;;;;;;;1.65;0.95;;;12.40;52.80;;;;;;5095299;28;20605;-49
2022/01/04 06:29:48;;;;;;;4.78;1.33;;;12.40;53.00;;;;;;5095423;28;20175;-49
2022/01/04 06:32:17;;;;;;;1.65;0.55;;;12.40;53.00;;;;;;5077962;28;20171;-49
2022/01/04 06:34:45;;;;;;;1.70;0.82;;;12.40;53.00;;;;;;5094582;28;20164;-48
2022/01/04 06:37:14;;;;;;;1.20;0.60;;;12.40;52.90;;;;;;5095121;28;20156;-49
2022/01/04 06:39:41;;;;;;;1.60;0.80;;;12.40;53.00;;;;;;5094470;28;20170;-48
2022/01/04 06:42:09;;;;;;;1.80;0.88;;;12.40;53.00;;;;;;5094243;28;20169;-48
2022/01/04 06:44:36;;;;;;;1.65;0.90;;;12.40;52.90;;;;;;5094065;28;20248;-48
2022/01/04 06:47:05;;;;;;;1.77;0.60;;;12.40;52.90;;;;;;5094655;28;20255;-48
2022/01/04 06:49:32;;;;;;;1.60;0.90;;;12.40;52.70;;;;;;5094111;28;20195;-49
2022/01/04 06:52:00;;;;;;;2.70;1.00;;;12.40;52.60;;;;;;5077404;28;20200;-48
2022/01/04 06:54:27;;;;;;;1.77;0.73;;;12.40;52.90;;;;;;5094960;28;20191;-48
2022/01/04 06:56:55;;;;;;;5.13;0.75;;;12.40;52.90;;;;;;5094047;28;20172;-48
2022/01/04 06:59:22;;;;;;;5.03;1.00;;;12.40;52.90;;;;;;5094907;28;20164;-48
2022/01/04 07:01:50;;;;;;;1.48;0.50;;;12.40;52.90;;;;;;5093999;28;20171;-48
2022/01/04 07:04:17;;;;;;;6.05;0.90;;;12.40;52.90;;;;;;5095092;28;20657;-49
2022/01/04 07:06:45;;;;;;;4.15;1.60;;;12.30;53.30;;;;;;5095145;28;20278;-48
2022/01/04 07:09:12;;;;;;;1.73;0.85;;;12.30;53.20;;;;;;5093898;28;20623;-48
2022/01/04 07:11:40;;;;;;;4.50;1.48;;;12.30;53.10;;;;;;5094742;28;20620;-48
2022/01/04 07:14:07;;;;;;;3.60;0.95;;;12.40;53.00;;;;;;5094101;28;20674;-49
2022/01/04 07:16:34;;;;;;;2.42;1.13;;;12.40;53.60;;;;;;5094095;28;20179;-48
2022/01/04 07:19:02;;;;;;;3.95;1.52;;;12.40;53.00;;;;;;5095178;28;20246;-48
2022/01/04 07:21:30;;;;;;;1.85;1.15;;;12.40;52.90;;;;;;5094702;28;20169;-48
2022/01/04 07:23:57;;;;;;;1.52;0.82;;;12.40;52.80;;;;;;5094674;28;20172;-48
2022/01/04 07:26:25;;;;;;;2.25;0.98;;;12.50;52.80;;;;;;5077291;28;20168;-49
2022/01/04 07:28:52;;;;;;;1.83;1.27;;;12.50;52.80;;;;;;5094632;28;20167;-48
2022/01/04 07:31:21;;;;;;;5.30;2.00;;;12.50;52.80;;;;;;5094151;28;20195;-49
2022/01/04 07:33:48;;;;;;;1.42;0.70;;;12.50;52.70;;;;;;5098597;28;20160;-48
2022/01/04 07:36:17;;;;;;;3.63;1.13;;;12.50;52.60;;;;;;5081407;28;20225;-49
2022/01/04 07:38:45;;;;;;;3.58;1.30;;;12.40;52.70;;;;;;5098709;28;20609;-49
2022/01/04 07:41:12;;;;;;;2.00;0.93;;;12.50;52.90;;;;;;5080914;28;20206;-48
2022/01/04 07:43:41;;;;;;;1.42;0.90;;;12.50;52.90;;;;;;5097480;28;20225;-49
2022/01/04 07:46:09;;;;;;;3.42;1.33;;;12.40;53.00;;;;;;5098246;28;20211;-48
2022/01/04 07:48:36;;;;;;;1.83;1.17;;;12.40;53.00;;;;;;5098379;28;20601;-48
2022/01/04 07:51:03;;;;;;;2.75;1.55;;;12.40;52.90;;;;;;5098335;28;20576;-48
2022/01/04 07:53:31;;;;;;;1.70;0.80;;;12.40;53.00;;;;;;5098210;28;20164;-48
2022/01/04 07:55:59;;;;;;;3.95;1.60;;;12.40;53.20;;;;;;5097319;28;20258;-48
2022/01/04 07:58:26;;;;;;;2.78;1.30;;;12.40;53.00;;;;;;5080913;28;20194;-48
2022/01/04 08:00:53;;;;;;;2.72;1.38;;;12.40;53.20;;;;;;5098323;28;20175;-47
2022/01/04 08:03:21;;;;;;;1.90;0.85;;;12.40;53.00;;;;;;5098071;28;20167;-48
2022/01/04 08:05:49;;;;;;;2.97;1.20;;;12.40;53.00;;;;;;5097970;28;20554;-49
2022/01/04 08:08:17;;;;;;;2.58;1.15;;;12.40;52.80;;;;;;5097482;28;20211;-49
2022/01/04 08:10:46;;;;;;;2.33;0.93;;;12.50;52.80;;;;;;5097853;28;20203;-49
2022/01/04 08:13:14;;;;;;;2.20;0.90;;;12.50;52.70;;;;;;5080468;28;20171;-50
2022/01/04 08:15:42;;;;;;;1.60;1.50;;;12.60;52.60;;;;;;5097923;28;20176;-48
2022/01/04 08:18:09;;;;;;;2.10;0.95;;;12.60;52.60;;;;;;5096901;28;20235;-49
2022/01/04 08:20:37;;;;;;;1.40;1.10;;;12.60;52.50;;;;;;5097299;28;20174;-48
2022/01/04 08:23:04;;;;;;;3.10;0.63;;;12.60;52.50;;;;;;5097986;28;20214;-48
2022/01/04 08:25:32;;;;;;;1.40;0.52;;;12.60;52.60;;;;;;5097292;28;20544;-48
2022/01/04 08:27:59;;;;;;;1.63;0.98;;;12.60;52.60;;;;;;5098045;28;20523;-49
2022/01/04 08:30:27;;;;;;;1.83;1.02;;;12.60;52.50;;;;;;5097709;28;20240;-48
2022/01/04 08:32:54;;;;;;;1.65;0.60;;;12.60;52.40;;;;;;5097562;28;20168;-48
2022/01/04 08:35:22;;;;;;;1.65;0.77;;;12.70;52.50;;;;;;5097619;28;20176;-50
2022/01/04 08:37:49;;;;;;;3.17;1.48;;;12.70;52.50;;;;;;5096563;28;20231;-49
2022/01/04 08:40:17;;;;;;;1.60;1.00;;;12.70;52.40;;;;;;5080067;28;20623;-48
2022/01/04 08:42:45;;;;;;;4.05;1.27;;;12.70;52.70;;;;;;5095853;28;20283;-48
2022/01/04 08:45:12;;;;;;;2.08;1.23;;;12.70;52.50;;;;;;5095904;28;20207;-49
2022/01/04 08:47:42;;;;;;;1.98;1.27;;;12.70;52.40;;;;;;5097140;28;20181;-49
2022/01/04 08:50:11;;;;;;;1.33;0.80;;;12.70;52.40;;;;;;5096432;28;20172;-50
2022/01/04 08:52:39;;;;;;;1.88;1.10;;;12.70;52.40;;;;;;5079879;28;20164;-48
2022/01/04 08:55:08;;;;;;;1.23;0.68;;;12.80;52.40;;;;;;5097610;28;20505;-48
2022/01/04 08:57:35;;;;;;;1.35;0.85;;;12.80;52.30;;;;;;5096245;28;20243;-48
2022/01/04 09:00:05;;;;;;;3.95;1.00;;;12.80;52.20;;;;;;5097004;28;20214;-48
2022/01/04 09:02:34;;;;;;;1.30;0.65;;;12.90;52.30;;;;;;5097102;28;20160;-49
2022/01/04 09:05:02;;;;;;;2.50;1.13;;;12.90;52.80;;;;;;5079568;28;20218;-48
2022/01/04 09:07:29;;;;;;;1.95;0.95;;;12.90;52.10;;;;;;5096252;28;20659;-49
2022/01/04 09:09:57;;;;;;;1.25;0.82;;;12.90;52.10;;;;;;5095911;28;20215;-49
2022/01/04 09:12:29;;;;;;;1.30;0.70;;;12.90;52.10;;;;;;5096774;28;20242;-49
2022/01/04 09:15:05;;;;;;;1.13;0.55;;;13.00;52.10;;;;;;5079722;28;20172;-49
2022/01/04 09:20:20;;;;;;;1.58;0.55;;;12.90;51.90;;;;;;5096218;28;20163;-49
2022/01/04 09:22:47;;;;;;;1.75;0.77;;;13.00;51.90;;;;;;5095784;28;20504;-49
2022/01/04 09:25:14;;;;;;;1.75;0.75;;;13.00;52.00;;;;;;5095682;28;20263;-48
2022/01/04 09:27:42;;;;;;;2.10;0.98;;;13.00;51.90;;;;;;5096362;28;20182;-49
2022/01/04 09:30:09;;;;;;;1.58;0.70;;;13.00;51.90;;;;;;5095670;28;20166;-49
2022/01/04 09:32:37;;;;;;;2.90;1.02;;;13.00;51.90;;;;;;5078758;28;20168;-49
2022/01/04 09:35:05;;;;;;;1.73;1.00;;;13.00;51.80;;;;;;5095492;28;20167;-49
2022/01/04 09:37:33;;;;;;;1.30;0.77;;;13.00;51.90;;;;;;5095607;28;20209;-49
2022/01/04 09:40:00;;;;;;;1.42;0.93;;;13.00;51.90;;;;;;5096414;28;20167;-49
2022/01/04 09:42:27;;;;;;;3.15;1.30;;;13.10;52.00;;;;;;5095553;28;20184;-49
2022/01/04 09:44:55;;;;;;;2.08;1.00;;;13.10;51.90;;;;;;5095923;28;20216;-49
2022/01/04 09:47:22;;;;;;;2.10;1.35;;;13.10;51.80;;;;;;5095423;28;20179;-48
2022/01/04 09:49:50;;;;;;;1.63;1.13;;;13.20;51.80;;;;;;5095517;28;20172;-49
2022/01/04 09:52:21;;;;;;;3.05;2.00;;;13.20;51.90;;;;;;5095951;28;20188;-49
2022/01/04 09:54:53;;;;;;;2.03;1.10;;;13.20;51.90;;;;;;5095841;28;20160;-49
2022/01/04 09:57:21;;;;;;;1.50;0.90;;;13.20;51.80;;;;;;5079082;28;20175;-49
2022/01/04 09:59:49;;;;;;;1.85;0.85;;;13.20;51.80;;;;;;5095843;28;20164;-48
2022/01/04 10:02:20;;;;;;;1.67;0.70;;;13.20;51.90;;;;;;5095823;28;20164;-49
2022/01/04 10:04:48;;;;;;;1.67;0.90;;;13.20;51.90;;;;;;5094978;28;20155;-49
2022/01/04 10:07:21;;;;;;;1.80;1.40;;;13.20;52.00;;;;;;5094917;28;20605;-49
2022/01/04 10:09:52;;;;;;;1.60;1.17;;;13.20;52.00;;;;;;5094966;28;20187;-49
2022/01/04 10:12:21;;;;;;;1.80;0.90;;;13.20;52.00;;;;;;5095797;28;20287;-49
2022/01/04 10:14:53;;;;;;;2.00;1.02;;;13.20;52.10;;;;;;5094988;28;20169;-49
2022/01/04 10:17:29;;;;;;;2.75;1.10;;;13.20;52.10;;;;;;5095063;28;20235;-49
2022/01/04 10:20:01;;;;;;;1.42;0.90;;;13.20;52.20;;;;;;5094689;28;20164;-49
2022/01/04 10:22:34;;;;;;;1.40;0.88;;;13.20;52.30;;;;;;5095103;28;20160;-49
2022/01/04 10:25:04;;;;;;;1.52;0.80;;;13.20;52.30;;;;;;5094368;28;20610;-49
2022/01/04 10:27:40;;;;;;;1.63;1.02;;;13.10;52.50;;;;;;5095600;28;20179;-48
2022/01/04 10:30:32;;;;;;;3.05;1.20;;;13.10;52.60;;;;;;5094820;28;20167;-50
2022/01/04 10:33:22;;;;;;;1.88;0.90;;;13.10;52.60;;;;;;5095347;28;20178;-48
2022/01/04 10:35:51;;;;;;;1.92;0.98;;;13.20;52.50;;;;;;5095320;28;20163;-48
2022/01/04 10:38:31;;;;;;;1.67;0.90;;;13.20;52.60;;;;;;5095322;28;20172;-49
2022/01/04 10:41:01;;;;;;;2.65;1.17;;;13.20;52.60;;;;;;5095210;28;20163;-49
2022/01/04 10:43:39;;;;;;;3.60;1.10;;;13.20;52.60;;;;;;5094796;28;20171;-48
2022/01/04 10:46:07;;;;;;;2.42;0.82;;;13.20;52.40;;;;;;5094821;28;20261;-48
2022/01/04 10:48:39;;;;;;;2.78;1.23;;;13.30;52.40;;;;;;5094298;28;20194;-49
2022/01/04 10:51:12;;;;;;;2.03;1.20;;;13.30;52.30;;;;;;5095018;28;20633;-48
2022/01/04 10:53:47;;;;;;;2.30;1.00;;;13.30;52.30;;;;;;5078074;28;20159;-48
2022/01/04 10:56:31;;;;;;;2.67;2.00;;;13.30;52.20;;;;;;5077613;28;20239;-48
2022/01/04 10:59:02;;;;;;;2.63;1.48;;;13.30;52.10;;;;;;5094351;28;20148;-49
2022/01/04 11:01:39;;;;;;;1.83;0.80;;;13.30;52.50;;;;;;5094185;28;20250;-49
2022/01/04 11:04:16;;;;;;;1.52;0.98;;;13.20;52.40;;;;;;5094223;28;20609;-49
2022/01/04 11:06:45;;;;;;;1.90;1.20;;;13.20;52.40;;;;;;5077395;28;20155;-48
2022/01/04 11:09:13;;;;;;;1.33;0.70;;;13.20;52.50;;;;;;5093974;28;20168;-48
2022/01/04 11:11:41;;;;;;;1.52;1.05;;;13.20;52.50;;;;;;5094770;28;20187;-48
2022/01/04 11:14:10;;;;;;;3.08;1.50;;;13.30;52.70;;;;;;5094840;28;20164;-50
2022/01/04 11:16:38;;;;;;;2.22;1.08;;;13.20;52.60;;;;;;5093906;28;20183;-48
2022/01/04 11:19:07;;;;;;;1.90;1.08;;;13.20;52.60;;;;;;5094983;28;20515;-48
2022/01/04 11:21:42;;;;;;;2.88;0.95;;;13.30;52.70;;;;;;5094555;28;20203;-48
2022/01/04 11:24:13;;;;;;;1.45;1.02;;;13.30;52.60;;;;;;5094121;28;20620;-50
2022/01/04 11:26:42;;;;;;;1.58;1.02;;;13.30;52.70;;;;;;5077416;28;20585;-50
2022/01/04 11:29:10;;;;;;;3.35;1.10;;;13.30;52.70;;;;;;5094707;28;20535;-48
2022/01/04 11:32:08;;;;;;;1.63;1.10;;;13.30;52.70;;;;;;5093701;28;20191;-48
2022/01/04 11:35:16;;;;;;;1.70;0.88;;;13.40;52.60;;;;;;5095202;28;20204;-49
2022/01/04 11:37:58;;;;;;;1.25;0.80;;;13.40;52.50;;;;;;5094837;28;20156;-49
2022/01/04 11:40:32;;;;;;;1.67;1.15;;;13.40;52.50;;;;;;5093689;28;20489;-49
2022/01/04 11:42:59;;;;;;;3.92;1.42;;;13.40;52.70;;;;;;5094602;28;20485;-49
2022/01/04 11:45:42;;;;;;;2.47;1.10;;;13.40;52.60;;;;;;5093381;28;20215;-48
2022/01/04 11:48:34;;;;;;;1.58;1.08;;;13.40;52.60;;;;;;5093936;28;20175;-48
2022/01/04 11:51:05;;;;;;;1.80;1.10;;;13.40;52.60;;;;;;5093815;28;20201;-49
2022/01/04 11:53:36;;;;;;;3.33;1.88;;;13.40;52.60;;;;;;5060436;28;20165;-48
2022/01/04 11:56:08;;;;;;;2.38;1.20;;;13.30;52.60;;;;;;5093620;28;20168;-48
2022/01/04 11:58:54;;;;;;;2.20;1.02;;;13.30;52.60;;;;;;5094341;28;20168;-49
2022/01/04 12:01:27;;;;;;;1.33;0.82;;;13.30;52.60;;;;;;5077557;28;20167;-49
2022/01/04 12:03:55;;;;;;;2.22;1.38;;;13.30;52.50;;;;;;5076820;28;20187;-49
2022/01/04 12:06:41;;;;;;;2.17;0.70;;;13.40;52.60;;;;;;5076907;28;20664;-49
2022/01/04 12:09:38;;;;;;;1.65;1.00;;;13.40;52.30;;;;;;5094477;28;20539;-48
2022/01/04 12:12:06;;;;;;;1.40;0.50;;;13.30;52.10;;;;;;5077171;28;20235;-48
2022/01/04 12:14:34;;;;;;;1.30;0.30;;;13.20;52.10;;;;;;5093363;28;20179;-49
2022/01/04 12:17:04;;;;;;;1.10;0.32;;;13.20;52.10;;;;;;5094029;28;20187;-47
2022/01/04 12:19:51;;;;;;;1.20;0.52;;;13.20;52.10;;;;;;5079149;28;20172;-49
2022/01/04 12:22:32;;;;;;;1.10;0.40;;;13.10;52.10;;;;;;5098241;28;20156;-49
2022/01/04 12:25:06;;;;;;;1.38;0.73;;;13.10;52.10;;;;;;5097999;28;20247;-49
2022/01/04 12:27:33;;;;;;;1.30;0.80;;;13.10;52.50;;;;;;5096812;28;20164;-49
2022/01/04 12:30:26;;;;;;;1.10;0.30;;;13.00;52.50;;;;;;5096968;28;20161;-49
2022/01/04 12:33:13;;;;;;;1.30;0.43;;;13.00;52.30;;;;;;5097592;28;20251;-49
2022/01/04 12:35:50;;;;;;;1.52;0.50;;;13.00;52.30;;;;;;5096420;28;20176;-49
2022/01/04 12:38:18;;;;;;;1.00;0.32;;;13.00;52.40;;;;;;5096551;28;20175;-49
2022/01/04 12:40:52;;;;;;;1.35;0.93;;;13.00;52.40;;;;;;5097659;28;20164;-50
2022/01/04 12:43:20;;;;;;;1.10;0.30;;;13.00;52.30;;;;;;5096759;28;20593;-49
2022/01/04 12:46:01;;;;;;;1.52;0.70;;;13.00;52.30;;;;;;5096309;28;20216;-48
2022/01/04 12:48:52;;;;;;;1.10;0.50;;;13.10;52.40;;;;;;5096640;28;20242;-49
2022/01/04 12:51:31;;;;;;;1.52;0.65;;;13.10;52.40;;;;;;5097127;28;20188;-49
2022/01/04 12:54:10;;;;;;;1.20;0.70;;;13.10;52.50;;;;;;5097123;28;20156;-49
2022/01/04 12:57:12;;;;;;;1.10;0.43;;;13.10;52.40;;;;;;5080544;28;20156;-49
2022/01/04 12:59:46;;;;;;;1.83;0.57;;;13.00;52.40;;;;;;5054281;28;20174;-49
2022/01/04 13:02:17;;;;;;;0.95;0.30;;;13.00;52.40;;;;;;5097326;28;20584;-49
2022/01/04 13:04:52;;;;;;;1.20;0.50;;;13.00;52.50;;;;;;5096984;28;20168;-49
2022/01/04 13:07:27;;;;;;;1.48;0.80;;;13.00;52.50;;;;;;5096842;28;20217;-49
2022/01/04 13:10:00;;;;;;;1.48;0.80;;;12.90;52.60;;;;;;5097136;28;20164;-49